createdAt,value
2017-12-12T00:00:25.994Z,57.93
2017-12-12T00:00:57.636Z,58.02
2017-12-12T00:01:29.275Z,58.03
2017-12-12T00:02:00.920Z,58.08
2017-12-12T00:02:32.559Z,58.13
2017-12-12T00:03:04.204Z,58.08
2017-12-12T00:03:35.845Z,58.07
2017-12-12T00:04:07.484Z,57.93
2017-12-12T00:04:39.127Z,58.17
2017-12-12T00:05:10.770Z,58.15
2017-12-12T00:05:42.414Z,58.19
2017-12-12T00:06:14.052Z,58.21
2017-12-12T00:06:45.695Z,58.19
2017-12-12T00:07:17.335Z,58.23
2017-12-12T00:07:48.999Z,58.26
2017-12-12T00:08:20.687Z,58.39
2017-12-12T00:08:52.316Z,58.33
2017-12-12T00:09:23.941Z,58.37
2017-12-12T00:09:55.566Z,58.28
2017-12-12T00:10:27.198Z,58.26
2017-12-12T00:10:59.091Z,58.44
2017-12-12T00:11:30.782Z,58.35
2017-12-12T00:12:02.420Z,58.24
2017-12-12T00:12:34.062Z,58.40
2017-12-12T00:13:05.704Z,58.30
2017-12-12T00:13:37.380Z,58.40
2017-12-12T00:14:09.002Z,58.55
2017-12-12T00:14:40.833Z,58.46
2017-12-12T00:15:12.582Z,58.51
2017-12-12T00:15:44.223Z,58.50
2017-12-12T00:16:15.862Z,58.52
2017-12-12T00:16:47.505Z,58.54
2017-12-12T00:17:19.127Z,58.59
2017-12-12T00:17:50.792Z,58.47
2017-12-12T00:18:22.430Z,58.45
2017-12-12T00:18:54.098Z,58.50
2017-12-12T00:19:25.721Z,58.40
2017-12-12T00:19:57.359Z,58.51
2017-12-12T00:20:28.998Z,58.58
2017-12-12T00:21:00.642Z,58.51
2017-12-12T00:21:32.282Z,58.79
2017-12-12T00:22:03.924Z,58.61
2017-12-12T00:22:35.568Z,58.56
2017-12-12T00:23:07.208Z,58.66
2017-12-12T00:23:38.854Z,58.58
2017-12-12T00:24:10.542Z,58.75
2017-12-12T00:24:42.169Z,58.65
2017-12-12T00:25:13.790Z,58.44
2017-12-12T00:25:45.656Z,58.51
2017-12-12T00:26:17.283Z,58.34
2017-12-12T00:26:49.013Z,58.51
2017-12-12T00:27:20.653Z,58.60
2017-12-12T00:27:52.283Z,58.55
2017-12-12T00:28:23.937Z,58.53
2017-12-12T00:28:55.575Z,58.86
2017-12-12T00:29:27.238Z,58.78
2017-12-12T00:29:59.064Z,58.83
2017-12-12T00:30:30.812Z,58.94
2017-12-12T00:31:02.453Z,58.74
2017-12-12T00:31:34.092Z,58.74
2017-12-12T00:32:05.763Z,58.96
2017-12-12T00:32:37.390Z,58.88
2017-12-12T00:33:09.254Z,58.91
2017-12-12T00:33:40.878Z,58.79
2017-12-12T00:34:12.665Z,58.78
2017-12-12T00:34:44.271Z,59.07
2017-12-12T00:35:15.902Z,58.83
2017-12-12T00:35:47.536Z,58.78
2017-12-12T00:36:19.202Z,58.46
2017-12-12T00:36:51.092Z,58.31
2017-12-12T00:37:22.722Z,58.67
2017-12-12T00:37:54.352Z,58.35
2017-12-12T00:38:25.987Z,58.42
2017-12-12T00:38:57.606Z,58.39
2017-12-12T00:39:29.338Z,58.33
2017-12-12T00:40:00.970Z,58.37
2017-12-12T00:40:32.618Z,58.33
2017-12-12T00:41:04.261Z,58.38
2017-12-12T00:41:35.922Z,58.46
2017-12-12T00:42:07.856Z,58.48
2017-12-12T00:42:39.497Z,58.51
2017-12-12T00:43:11.141Z,58.58
2017-12-12T00:43:42.786Z,58.50
2017-12-12T00:44:14.422Z,58.42
2017-12-12T00:44:46.062Z,58.52
2017-12-12T00:45:17.703Z,58.60
2017-12-12T00:45:49.346Z,58.51
2017-12-12T00:46:21.023Z,58.54
2017-12-12T00:46:52.658Z,58.73
2017-12-12T00:47:24.286Z,58.61
2017-12-12T00:47:56.223Z,58.59
2017-12-12T00:48:27.864Z,58.72
2017-12-12T00:48:59.504Z,58.79
2017-12-12T00:49:31.148Z,58.67
2017-12-12T00:50:02.791Z,58.70
2017-12-12T00:50:34.430Z,58.70
2017-12-12T00:51:06.071Z,58.81
2017-12-12T00:51:38.254Z,58.73
2017-12-12T00:52:09.878Z,58.63
2017-12-12T00:52:41.615Z,58.78
2017-12-12T00:53:13.298Z,58.62
2017-12-12T00:53:44.918Z,58.65
2017-12-12T00:54:16.557Z,58.64
2017-12-12T00:54:48.414Z,58.78
2017-12-12T00:55:20.042Z,58.77
2017-12-12T00:55:51.774Z,58.81
2017-12-12T00:56:23.418Z,59.19
2017-12-12T00:56:55.365Z,59.01
2017-12-12T00:57:27.003Z,59.03
2017-12-12T00:57:58.648Z,59.05
2017-12-12T00:58:30.334Z,59.03
2017-12-12T00:59:02.203Z,58.93
2017-12-12T00:59:33.831Z,59.02
2017-12-12T01:00:05.462Z,59.00
2017-12-12T01:00:37.082Z,59.03
2017-12-12T01:01:08.711Z,58.92
2017-12-12T01:01:40.453Z,58.94
2017-12-12T01:02:12.075Z,58.98
2017-12-12T01:02:43.730Z,59.05
2017-12-12T01:03:15.681Z,59.09
2017-12-12T01:03:47.351Z,59.06
2017-12-12T01:04:19.239Z,59.05
2017-12-12T01:04:50.865Z,59.05
2017-12-12T01:05:22.494Z,59.10
2017-12-12T01:05:54.126Z,59.27
2017-12-12T01:06:25.746Z,58.98
2017-12-12T01:06:57.482Z,59.16
2017-12-12T01:07:29.120Z,59.12
2017-12-12T01:08:01.082Z,59.10
2017-12-12T01:08:32.730Z,59.26
2017-12-12T01:09:04.486Z,59.14
2017-12-12T01:09:36.118Z,59.08
2017-12-12T01:10:07.946Z,59.14
2017-12-12T01:10:39.586Z,59.12
2017-12-12T01:11:11.231Z,59.13
2017-12-12T01:11:42.872Z,59.05
2017-12-12T01:12:14.516Z,59.03
2017-12-12T01:12:46.154Z,59.05
2017-12-12T01:13:17.799Z,59.13
2017-12-12T01:13:49.441Z,59.19
2017-12-12T01:14:21.080Z,59.17
2017-12-12T01:14:52.754Z,59.13
2017-12-12T01:15:24.382Z,59.24
2017-12-12T01:15:56.026Z,59.12
2017-12-12T01:16:27.958Z,59.16
2017-12-12T01:16:59.597Z,59.10
2017-12-12T01:17:31.238Z,59.00
2017-12-12T01:18:02.884Z,59.10
2017-12-12T01:18:34.525Z,59.24
2017-12-12T01:19:06.483Z,59.19
2017-12-12T01:19:38.130Z,59.25
2017-12-12T01:20:09.803Z,59.23
2017-12-12T01:20:41.426Z,59.24
2017-12-12T01:21:13.054Z,59.31
2017-12-12T01:21:44.888Z,59.32
2017-12-12T01:22:16.633Z,59.34
2017-12-12T01:22:48.275Z,59.34
2017-12-12T01:23:19.943Z,59.42
2017-12-12T01:23:51.575Z,59.46
2017-12-12T01:24:23.508Z,59.35
2017-12-12T01:24:55.149Z,59.52
2017-12-12T01:25:26.788Z,59.57
2017-12-12T01:25:58.431Z,59.52
2017-12-12T01:26:30.075Z,59.36
2017-12-12T01:27:01.751Z,59.67
2017-12-12T01:27:33.379Z,59.59
2017-12-12T01:28:05.007Z,59.64
2017-12-12T01:28:36.642Z,59.91
2017-12-12T01:29:08.282Z,59.87
2017-12-12T01:29:39.927Z,60.00
2017-12-12T01:30:11.568Z,59.92
2017-12-12T01:30:43.210Z,59.87
2017-12-12T01:31:14.861Z,60.11
2017-12-12T01:31:46.732Z,59.94
2017-12-12T01:32:18.443Z,60.32
2017-12-12T01:32:50.388Z,60.09
2017-12-12T01:33:22.034Z,59.93
2017-12-12T01:33:53.901Z,60.05
2017-12-12T01:34:25.570Z,59.87
2017-12-12T01:34:57.195Z,59.94
2017-12-12T01:35:28.818Z,60.11
2017-12-12T01:36:00.552Z,60.06
2017-12-12T01:36:32.178Z,60.02
2017-12-12T01:37:03.834Z,60.03
2017-12-12T01:37:35.475Z,60.03
2017-12-12T01:38:07.146Z,60.18
2017-12-12T01:38:38.775Z,60.18
2017-12-12T01:39:10.710Z,60.39
2017-12-12T01:39:42.349Z,60.32
2017-12-12T01:40:13.994Z,60.43
2017-12-12T01:40:45.635Z,60.54
2017-12-12T01:41:17.280Z,60.48
2017-12-12T01:41:48.919Z,60.47
2017-12-12T01:42:20.561Z,60.54
2017-12-12T01:42:52.203Z,60.31
2017-12-12T01:43:23.859Z,60.37
2017-12-12T01:43:55.795Z,60.41
2017-12-12T01:44:27.743Z,60.36
2017-12-12T01:44:59.406Z,60.48
2017-12-12T01:45:31.039Z,60.41
2017-12-12T01:46:02.889Z,60.44
2017-12-12T01:46:34.929Z,60.45
2017-12-12T01:47:06.567Z,60.63
2017-12-12T01:47:38.206Z,60.87
2017-12-12T01:48:09.850Z,60.74
2017-12-12T01:48:41.490Z,60.63
2017-12-12T01:49:13.162Z,60.75
2017-12-12T01:49:44.786Z,60.64
2017-12-12T01:50:16.418Z,60.67
2017-12-12T01:50:48.060Z,60.69
2017-12-12T01:51:19.699Z,60.60
2017-12-12T01:51:51.344Z,60.70
2017-12-12T01:52:22.983Z,60.85
2017-12-12T01:52:54.627Z,60.78
2017-12-12T01:53:26.271Z,60.78
2017-12-12T01:53:57.911Z,60.63
2017-12-12T01:54:29.610Z,61.23
2017-12-12T01:55:01.504Z,60.92
2017-12-12T01:55:33.145Z,60.90
2017-12-12T01:56:04.785Z,61.05
2017-12-12T01:56:36.520Z,61.00
2017-12-12T01:57:08.378Z,61.22
2017-12-12T01:57:40.020Z,61.21
2017-12-12T01:58:11.661Z,61.07
2017-12-12T01:58:43.305Z,61.34
2017-12-12T01:59:14.944Z,61.26
2017-12-12T01:59:46.584Z,61.13
2017-12-12T02:00:18.267Z,61.24
2017-12-12T02:00:49.891Z,61.18
2017-12-12T02:01:21.523Z,61.27
2017-12-12T02:01:53.393Z,61.40
2017-12-12T02:02:25.023Z,61.45
2017-12-12T02:02:56.651Z,61.30
2017-12-12T02:03:28.388Z,61.18
2017-12-12T02:04:00.029Z,61.34
2017-12-12T02:04:31.668Z,61.32
2017-12-12T02:05:03.312Z,61.35
2017-12-12T02:05:34.984Z,61.36
2017-12-12T02:06:06.611Z,61.42
2017-12-12T02:06:38.546Z,61.38
2017-12-12T02:07:10.222Z,61.35
2017-12-12T02:07:41.846Z,61.43
2017-12-12T02:08:13.479Z,61.68
2017-12-12T02:08:45.114Z,61.44
2017-12-12T02:09:16.755Z,61.40
2017-12-12T02:09:48.394Z,61.40
2017-12-12T02:10:20.040Z,62.09
2017-12-12T02:10:51.670Z,61.78
2017-12-12T02:11:23.322Z,61.90
2017-12-12T02:11:54.965Z,61.80
2017-12-12T02:12:26.639Z,61.77
2017-12-12T02:12:58.262Z,62.03
2017-12-12T02:13:30.084Z,61.82
2017-12-12T02:14:01.840Z,61.77
2017-12-12T02:14:33.482Z,61.82
2017-12-12T02:15:05.123Z,61.95
2017-12-12T02:15:36.763Z,62.03
2017-12-12T02:16:08.407Z,61.79
2017-12-12T02:16:40.049Z,61.99
2017-12-12T02:17:11.690Z,61.82
2017-12-12T02:17:43.357Z,61.84
2017-12-12T02:18:14.986Z,62.06
2017-12-12T02:18:46.925Z,62.03
2017-12-12T02:19:18.566Z,62.04
2017-12-12T02:19:50.208Z,62.25
2017-12-12T02:20:21.879Z,62.37
2017-12-12T02:20:53.506Z,62.18
2017-12-12T02:21:25.143Z,62.19
2017-12-12T02:21:57.082Z,62.29
2017-12-12T02:22:28.722Z,62.36
2017-12-12T02:23:00.366Z,62.35
2017-12-12T02:23:32.005Z,62.38
2017-12-12T02:24:03.647Z,62.51
2017-12-12T02:24:35.298Z,62.44
2017-12-12T02:25:06.962Z,62.48
2017-12-12T02:25:38.590Z,62.44
2017-12-12T02:26:10.525Z,62.24
2017-12-12T02:26:42.166Z,62.46
2017-12-12T02:27:13.806Z,62.36
2017-12-12T02:27:45.451Z,62.31
2017-12-12T02:28:17.089Z,62.44
2017-12-12T02:28:48.734Z,62.36
2017-12-12T02:29:20.407Z,62.37
2017-12-12T02:29:52.038Z,62.32
2017-12-12T02:30:23.667Z,62.19
2017-12-12T02:30:55.302Z,62.37
2017-12-12T02:31:26.946Z,62.20
2017-12-12T02:31:58.586Z,62.17
2017-12-12T02:32:30.228Z,62.18
2017-12-12T02:33:01.870Z,62.10
2017-12-12T02:33:33.512Z,62.15
2017-12-12T02:34:05.398Z,62.04
2017-12-12T02:34:37.103Z,62.10
2017-12-12T02:35:08.745Z,62.18
2017-12-12T02:35:40.384Z,62.03
2017-12-12T02:36:12.028Z,62.05
2017-12-12T02:36:43.670Z,62.17
2017-12-12T02:37:15.313Z,62.00
2017-12-12T02:37:46.955Z,62.03
2017-12-12T02:38:18.596Z,62.03
2017-12-12T02:38:50.242Z,62.04
2017-12-12T02:39:21.884Z,62.07
2017-12-12T02:39:53.771Z,61.75
2017-12-12T02:40:25.398Z,61.85
2017-12-12T02:40:57.022Z,61.72
2017-12-12T02:41:28.644Z,61.76
2017-12-12T02:42:00.397Z,61.79
2017-12-12T02:42:32.039Z,61.77
2017-12-12T02:43:03.678Z,61.64
2017-12-12T02:43:35.322Z,61.70
2017-12-12T02:44:06.964Z,61.67
2017-12-12T02:44:38.605Z,61.74
2017-12-12T02:45:10.282Z,61.75
2017-12-12T02:45:41.902Z,61.79
2017-12-12T02:46:13.839Z,61.74
2017-12-12T02:46:45.480Z,61.58
2017-12-12T02:47:17.125Z,61.61
2017-12-12T02:47:48.765Z,61.63
2017-12-12T02:48:20.405Z,61.61
2017-12-12T02:48:52.046Z,61.59
2017-12-12T02:49:23.691Z,61.56
2017-12-12T02:49:55.329Z,61.74
2017-12-12T02:50:26.990Z,61.74
2017-12-12T02:50:58.924Z,61.66
2017-12-12T02:51:30.565Z,61.90
2017-12-12T02:52:02.209Z,61.76
2017-12-12T02:52:33.834Z,61.65
2017-12-12T02:53:06.717Z,61.62
2017-12-12T02:53:38.364Z,61.61
2017-12-12T02:54:10.005Z,61.56
2017-12-12T02:54:41.646Z,61.71
2017-12-12T02:55:13.288Z,61.77
2017-12-12T02:55:44.929Z,61.75
2017-12-12T02:56:16.571Z,61.75
2017-12-12T02:56:48.213Z,61.55
2017-12-12T02:57:21.084Z,61.49
2017-12-12T02:57:52.731Z,61.65
2017-12-12T02:58:24.675Z,61.54
2017-12-12T02:58:56.314Z,61.51
2017-12-12T02:59:27.958Z,61.39
2017-12-12T02:59:59.597Z,61.52
2017-12-12T03:00:31.242Z,61.44
2017-12-12T03:01:02.884Z,61.37
2017-12-12T03:01:34.523Z,61.34
2017-12-12T03:02:06.168Z,61.32
2017-12-12T03:02:37.810Z,61.22
2017-12-12T03:03:09.478Z,61.30
2017-12-12T03:03:41.106Z,61.15
2017-12-12T03:04:12.934Z,61.13
2017-12-12T03:04:44.685Z,61.04
2017-12-12T03:05:16.327Z,61.10
2017-12-12T03:05:47.968Z,61.23
2017-12-12T03:06:19.638Z,61.22
2017-12-12T03:06:51.262Z,61.08
2017-12-12T03:07:22.894Z,61.07
2017-12-12T03:07:54.536Z,61.22
2017-12-12T03:08:26.177Z,61.19
2017-12-12T03:08:57.819Z,61.11
2017-12-12T03:09:29.461Z,61.05
2017-12-12T03:10:01.104Z,61.25
2017-12-12T03:10:33.691Z,61.09
2017-12-12T03:11:05.314Z,61.14
2017-12-12T03:11:36.978Z,61.00
2017-12-12T03:12:08.599Z,60.97
2017-12-12T03:12:40.234Z,61.15
2017-12-12T03:13:11.875Z,61.13
2017-12-12T03:13:43.518Z,61.11
2017-12-12T03:14:15.160Z,61.27
2017-12-12T03:14:46.802Z,61.09
2017-12-12T03:15:18.463Z,61.27
2017-12-12T03:15:50.091Z,61.48
2017-12-12T03:16:21.727Z,61.23
2017-12-12T03:16:53.368Z,61.39
2017-12-12T03:17:25.012Z,61.46
2017-12-12T03:17:56.655Z,61.24
2017-12-12T03:18:28.295Z,61.52
2017-12-12T03:18:59.937Z,61.57
2017-12-12T03:19:31.563Z,61.42
2017-12-12T03:20:03.194Z,61.47
2017-12-12T03:20:36.162Z,61.38
2017-12-12T03:21:07.842Z,61.54
2017-12-12T03:21:39.658Z,61.55
2017-12-12T03:22:11.282Z,61.87
2017-12-12T03:22:42.910Z,61.67
2017-12-12T03:23:14.534Z,61.76
2017-12-12T03:23:46.166Z,61.80
2017-12-12T03:24:17.798Z,61.99
2017-12-12T03:24:49.535Z,61.71
2017-12-12T03:25:21.176Z,61.91
2017-12-12T03:25:52.819Z,61.87
2017-12-12T03:26:24.481Z,61.85
2017-12-12T03:26:56.342Z,61.96
2017-12-12T03:27:27.967Z,61.89
2017-12-12T03:27:59.642Z,61.67
2017-12-12T03:28:31.271Z,61.61
2017-12-12T03:29:02.899Z,61.56
2017-12-12T03:29:35.074Z,61.54
2017-12-12T03:30:06.703Z,61.59
2017-12-12T03:30:38.331Z,61.52
2017-12-12T03:31:09.960Z,61.54
2017-12-12T03:31:41.805Z,61.75
2017-12-12T03:32:13.442Z,61.63
2017-12-12T03:32:45.103Z,61.58
2017-12-12T03:33:16.925Z,61.74
2017-12-12T03:33:48.676Z,61.57
2017-12-12T03:34:20.317Z,61.72
2017-12-12T03:34:51.956Z,61.71
2017-12-12T03:35:23.604Z,61.66
2017-12-12T03:35:55.243Z,61.60
2017-12-12T03:36:26.884Z,61.56
2017-12-12T03:36:58.527Z,61.63
2017-12-12T03:37:30.169Z,61.75
2017-12-12T03:38:01.833Z,61.57
2017-12-12T03:38:33.502Z,61.48
2017-12-12T03:39:05.138Z,61.59
2017-12-12T03:39:36.762Z,61.59
2017-12-12T03:40:08.426Z,61.64
2017-12-12T03:40:40.051Z,61.52
2017-12-12T03:41:11.674Z,61.41
2017-12-12T03:41:43.549Z,61.46
2017-12-12T03:42:15.175Z,61.52
2017-12-12T03:42:46.798Z,61.41
2017-12-12T03:43:18.537Z,61.42
2017-12-12T03:43:50.194Z,61.32
2017-12-12T03:44:21.870Z,61.32
2017-12-12T03:44:53.494Z,61.37
2017-12-12T03:45:25.130Z,61.17
2017-12-12T03:45:56.763Z,61.16
2017-12-12T03:46:28.394Z,61.41
2017-12-12T03:47:00.338Z,61.35
2017-12-12T03:47:31.979Z,61.40
2017-12-12T03:48:03.621Z,61.32
2017-12-12T03:48:35.263Z,61.26
2017-12-12T03:49:06.905Z,61.32
2017-12-12T03:49:38.569Z,61.21
2017-12-12T03:50:10.199Z,61.27
2017-12-12T03:50:41.834Z,61.18
2017-12-12T03:51:13.482Z,61.25
2017-12-12T03:51:45.171Z,61.22
2017-12-12T03:52:16.794Z,61.26
2017-12-12T03:52:48.666Z,61.13
2017-12-12T03:53:20.586Z,61.08
2017-12-12T03:53:52.206Z,61.26
2017-12-12T03:54:23.939Z,61.21
2017-12-12T03:54:55.577Z,61.25
2017-12-12T03:55:27.221Z,61.33
2017-12-12T03:55:58.863Z,61.18
2017-12-12T03:56:30.505Z,61.19
2017-12-12T03:57:02.184Z,61.21
2017-12-12T03:57:33.806Z,61.07
2017-12-12T03:58:05.625Z,61.15
2017-12-12T03:58:37.381Z,61.14
2017-12-12T03:59:09.022Z,61.06
2017-12-12T03:59:40.664Z,61.19
2017-12-12T04:00:12.326Z,61.16
2017-12-12T04:00:44.558Z,61.13
2017-12-12T04:01:16.205Z,61.05
2017-12-12T04:01:47.846Z,61.00
2017-12-12T04:02:19.518Z,60.93
2017-12-12T04:02:51.150Z,60.97
2017-12-12T04:03:22.778Z,60.90
2017-12-12T04:03:54.414Z,60.88
2017-12-12T04:04:26.052Z,60.89
2017-12-12T04:04:57.699Z,60.83
2017-12-12T04:05:29.344Z,61.35
2017-12-12T04:06:01.179Z,61.19
2017-12-12T04:06:32.834Z,61.07
2017-12-12T04:07:04.501Z,61.30
2017-12-12T04:07:36.127Z,61.24
2017-12-12T04:08:07.859Z,61.21
2017-12-12T04:08:39.496Z,61.22
2017-12-12T04:09:11.140Z,61.22
2017-12-12T04:09:42.782Z,61.33
2017-12-12T04:10:14.403Z,61.28
2017-12-12T04:10:46.034Z,61.37
2017-12-12T04:11:17.662Z,61.31
2017-12-12T04:11:49.290Z,61.30
2017-12-12T04:12:21.259Z,61.38
2017-12-12T04:12:53.130Z,61.35
2017-12-12T04:13:24.890Z,61.47
2017-12-12T04:13:56.532Z,61.41
2017-12-12T04:14:28.174Z,61.39
2017-12-12T04:14:59.816Z,61.35
2017-12-12T04:15:31.456Z,61.39
2017-12-12T04:16:03.099Z,61.38
2017-12-12T04:16:34.743Z,61.38
2017-12-12T04:17:06.383Z,61.39
2017-12-12T04:17:38.051Z,61.21
2017-12-12T04:18:09.671Z,61.30
2017-12-12T04:18:41.308Z,61.39
2017-12-12T04:19:12.951Z,61.33
2017-12-12T04:19:44.592Z,61.24
2017-12-12T04:20:16.235Z,61.20
2017-12-12T04:20:47.877Z,61.31
2017-12-12T04:21:19.526Z,61.20
2017-12-12T04:21:51.160Z,61.37
2017-12-12T04:22:22.822Z,61.46
2017-12-12T04:22:54.451Z,61.43
2017-12-12T04:23:26.082Z,61.29
2017-12-12T04:23:57.728Z,61.34
2017-12-12T04:24:29.370Z,61.25
2017-12-12T04:25:01.011Z,61.41
2017-12-12T04:25:32.653Z,61.26
2017-12-12T04:26:04.295Z,61.30
2017-12-12T04:26:35.936Z,61.32
2017-12-12T04:27:07.602Z,61.39
2017-12-12T04:27:39.230Z,61.59
2017-12-12T04:28:11.087Z,61.43
2017-12-12T04:28:42.763Z,61.30
2017-12-12T04:29:14.390Z,61.31
2017-12-12T04:29:46.054Z,61.31
2017-12-12T04:30:17.678Z,61.36
2017-12-12T04:30:49.314Z,61.47
2017-12-12T04:31:20.951Z,61.30
2017-12-12T04:31:52.578Z,61.30
2017-12-12T04:32:24.306Z,61.40
2017-12-12T04:32:55.948Z,61.39
2017-12-12T04:33:27.589Z,61.46
2017-12-12T04:33:59.231Z,61.42
2017-12-12T04:34:30.901Z,61.46
2017-12-12T04:35:02.527Z,61.30
2017-12-12T04:35:34.390Z,61.53
2017-12-12T04:36:06.019Z,61.46
2017-12-12T04:36:37.655Z,61.48
2017-12-12T04:37:09.389Z,61.45
2017-12-12T04:37:41.031Z,61.37
2017-12-12T04:38:12.700Z,61.53
2017-12-12T04:38:44.326Z,61.54
2017-12-12T04:39:15.957Z,61.46
2017-12-12T04:39:47.598Z,61.52
2017-12-12T04:40:19.241Z,61.42
2017-12-12T04:40:50.881Z,61.69
2017-12-12T04:41:22.525Z,61.68
2017-12-12T04:41:54.167Z,61.56
2017-12-12T04:42:25.809Z,61.57
2017-12-12T04:42:57.450Z,61.54
2017-12-12T04:43:29.092Z,61.61
2017-12-12T04:44:00.735Z,61.66
2017-12-12T04:44:32.384Z,61.70
2017-12-12T04:45:04.018Z,61.68
2017-12-12T04:45:35.667Z,61.71
2017-12-12T04:46:07.307Z,61.86
2017-12-12T04:46:38.974Z,61.65
2017-12-12T04:47:10.601Z,61.90
2017-12-12T04:47:42.235Z,62.03
2017-12-12T04:48:14.177Z,62.04
2017-12-12T04:48:45.818Z,61.96
2017-12-12T04:49:17.460Z,62.00
2017-12-12T04:49:49.109Z,61.92
2017-12-12T04:50:20.758Z,61.89
2017-12-12T04:50:52.387Z,62.00
2017-12-12T04:51:24.027Z,62.07
2017-12-12T04:51:55.667Z,62.14
2017-12-12T04:52:27.301Z,62.15
2017-12-12T04:52:58.983Z,62.16
2017-12-12T04:53:30.605Z,62.28
2017-12-12T04:54:02.238Z,62.23
2017-12-12T04:54:33.879Z,62.35
2017-12-12T04:55:05.522Z,62.10
2017-12-12T04:55:37.164Z,62.20
2017-12-12T04:56:08.805Z,62.14
2017-12-12T04:56:40.448Z,62.07
2017-12-12T04:57:12.088Z,62.16
2017-12-12T04:57:44.651Z,62.13
2017-12-12T04:58:16.327Z,61.97
2017-12-12T04:58:47.950Z,62.04
2017-12-12T04:59:19.578Z,61.93
2017-12-12T04:59:51.220Z,61.91
2017-12-12T05:00:22.859Z,62.05
2017-12-12T05:00:54.504Z,62.07
2017-12-12T05:01:26.146Z,62.01
2017-12-12T05:01:57.788Z,61.99
2017-12-12T05:02:29.429Z,62.01
2017-12-12T05:03:01.075Z,61.97
2017-12-12T05:03:32.748Z,62.05
2017-12-12T05:04:04.368Z,61.96
2017-12-12T05:04:36.230Z,61.96
2017-12-12T05:05:07.886Z,62.00
2017-12-12T05:05:39.507Z,61.87
2017-12-12T05:06:11.140Z,61.86
2017-12-12T05:06:42.872Z,61.79
2017-12-12T05:07:14.513Z,61.82
2017-12-12T05:07:46.156Z,61.78
2017-12-12T05:08:17.798Z,61.77
2017-12-12T05:08:49.467Z,61.79
2017-12-12T05:09:21.097Z,61.69
2017-12-12T05:09:52.964Z,61.71
2017-12-12T05:10:24.594Z,61.71
2017-12-12T05:10:56.220Z,61.66
2017-12-12T05:11:27.956Z,61.61
2017-12-12T05:11:59.599Z,61.66
2017-12-12T05:12:31.432Z,61.66
2017-12-12T05:13:03.189Z,61.61
2017-12-12T05:13:34.858Z,61.62
2017-12-12T05:14:06.477Z,61.64
2017-12-12T05:14:38.117Z,61.62
2017-12-12T05:15:09.757Z,61.63
2017-12-12T05:15:41.398Z,61.56
2017-12-12T05:16:13.043Z,61.57
2017-12-12T05:16:44.679Z,61.51
2017-12-12T05:17:16.324Z,61.55
2017-12-12T05:17:48.007Z,61.62
2017-12-12T05:18:19.629Z,61.68
2017-12-12T05:18:51.299Z,61.67
2017-12-12T05:19:22.927Z,61.59
2017-12-12T05:19:54.551Z,61.61
2017-12-12T05:20:26.483Z,61.69
2017-12-12T05:20:58.110Z,61.57
2017-12-12T05:21:29.767Z,61.49
2017-12-12T05:22:01.716Z,61.56
2017-12-12T05:22:33.357Z,61.73
2017-12-12T05:23:05.001Z,61.78
2017-12-12T05:23:36.678Z,61.95
2017-12-12T05:24:08.302Z,61.86
2017-12-12T05:24:40.122Z,61.99
2017-12-12T05:25:11.786Z,61.81
2017-12-12T05:25:43.517Z,61.79
2017-12-12T05:26:15.158Z,61.83
2017-12-12T05:26:46.800Z,61.78
2017-12-12T05:27:18.446Z,61.81
2017-12-12T05:27:50.084Z,61.71
2017-12-12T05:28:21.728Z,61.76
2017-12-12T05:28:53.399Z,61.88
2017-12-12T05:29:25.027Z,61.85
2017-12-12T05:29:56.659Z,61.87
2017-12-12T05:30:28.288Z,61.80
2017-12-12T05:30:59.936Z,61.89
2017-12-12T05:31:31.578Z,62.01
2017-12-12T05:32:03.215Z,61.92
2017-12-12T05:32:34.882Z,62.06
2017-12-12T05:33:06.749Z,62.07
2017-12-12T05:33:38.387Z,62.10
2017-12-12T05:34:10.044Z,62.14
2017-12-12T05:34:41.737Z,62.32
2017-12-12T05:35:13.377Z,62.28
2017-12-12T05:35:45.020Z,62.14
2017-12-12T05:36:16.662Z,62.14
2017-12-12T05:36:48.303Z,62.21
2017-12-12T05:37:19.946Z,62.15
2017-12-12T05:37:51.588Z,62.09
2017-12-12T05:38:23.227Z,62.05
2017-12-12T05:38:54.871Z,62.12
2017-12-12T05:39:26.542Z,62.10
2017-12-12T05:39:58.172Z,62.26
2017-12-12T05:40:29.810Z,62.34
2017-12-12T05:41:01.440Z,62.14
2017-12-12T05:41:33.078Z,62.28
2017-12-12T05:42:04.914Z,62.19
2017-12-12T05:42:36.672Z,62.20
2017-12-12T05:43:08.313Z,62.18
2017-12-12T05:43:39.955Z,62.26
2017-12-12T05:44:11.598Z,62.25
2017-12-12T05:44:43.286Z,62.16
2017-12-12T05:45:14.910Z,62.15
2017-12-12T05:45:46.539Z,62.15
2017-12-12T05:46:18.167Z,62.29
2017-12-12T05:46:49.806Z,62.25
2017-12-12T05:47:21.453Z,62.19
2017-12-12T05:47:53.090Z,62.14
2017-12-12T05:48:24.710Z,62.32
2017-12-12T05:48:56.375Z,62.13
2017-12-12T05:49:28.017Z,62.22
2017-12-12T05:49:59.658Z,62.17
2017-12-12T05:50:31.299Z,62.19
2017-12-12T05:51:02.942Z,62.21
2017-12-12T05:51:34.581Z,62.26
2017-12-12T05:52:06.226Z,62.20
2017-12-12T05:52:37.858Z,62.29
2017-12-12T05:53:09.510Z,62.24
2017-12-12T05:53:41.152Z,62.27
2017-12-12T05:54:12.793Z,62.27
2017-12-12T05:54:44.436Z,62.21
2017-12-12T05:55:16.098Z,62.36
2017-12-12T05:55:47.771Z,62.44
2017-12-12T05:56:19.402Z,62.34
2017-12-12T05:56:51.022Z,62.33
2017-12-12T05:57:22.651Z,62.38
2017-12-12T05:57:54.274Z,62.44
2017-12-12T05:58:25.929Z,62.28
2017-12-12T05:58:57.570Z,62.13
2017-12-12T05:59:29.214Z,62.16
2017-12-12T06:00:00.857Z,62.39
2017-12-12T06:00:32.497Z,62.32
2017-12-12T06:01:04.166Z,62.39
2017-12-12T06:01:35.791Z,62.39
2017-12-12T06:02:07.425Z,62.36
2017-12-12T06:02:39.063Z,62.24
2017-12-12T06:03:10.706Z,62.30
2017-12-12T06:03:42.347Z,62.26
2017-12-12T06:04:13.990Z,62.29
2017-12-12T06:04:45.631Z,62.16
2017-12-12T06:05:17.274Z,62.20
2017-12-12T06:05:48.938Z,62.34
2017-12-12T06:06:20.562Z,62.21
2017-12-12T06:06:52.506Z,62.19
2017-12-12T06:07:24.135Z,62.14
2017-12-12T06:07:55.790Z,62.09
2017-12-12T06:08:27.432Z,62.21
2017-12-12T06:08:59.076Z,62.09
2017-12-12T06:09:30.715Z,62.02
2017-12-12T06:10:02.379Z,62.00
2017-12-12T06:10:34.038Z,62.05
2017-12-12T06:11:05.664Z,62.07
2017-12-12T06:11:37.285Z,62.04
2017-12-12T06:12:09.090Z,61.95
2017-12-12T06:12:40.719Z,61.99
2017-12-12T06:13:12.519Z,62.01
2017-12-12T06:13:44.158Z,62.00
2017-12-12T06:14:15.799Z,61.80
2017-12-12T06:14:47.441Z,61.76
2017-12-12T06:15:19.081Z,61.77
2017-12-12T06:15:50.710Z,61.81
2017-12-12T06:16:22.330Z,61.79
2017-12-12T06:16:53.958Z,61.71
2017-12-12T06:17:25.590Z,61.69
2017-12-12T06:17:57.218Z,61.62
2017-12-12T06:18:28.877Z,61.62
2017-12-12T06:19:00.502Z,61.58
2017-12-12T06:19:32.127Z,61.60
2017-12-12T06:20:03.861Z,61.52
2017-12-12T06:20:35.500Z,61.60
2017-12-12T06:21:07.184Z,61.64
2017-12-12T06:21:38.803Z,61.48
2017-12-12T06:22:10.702Z,61.49
2017-12-12T06:22:42.334Z,61.63
2017-12-12T06:23:14.019Z,61.57
2017-12-12T06:23:45.661Z,61.62
2017-12-12T06:24:17.286Z,61.56
2017-12-12T06:24:48.945Z,61.70
2017-12-12T06:25:20.587Z,61.64
2017-12-12T06:25:52.226Z,61.66
2017-12-12T06:26:23.871Z,61.66
2017-12-12T06:26:55.513Z,61.69
2017-12-12T06:27:27.154Z,61.62
2017-12-12T06:27:58.796Z,61.53
2017-12-12T06:28:30.469Z,61.60
2017-12-12T06:29:02.139Z,61.61
2017-12-12T06:29:33.981Z,61.53
2017-12-12T06:30:05.909Z,61.70
2017-12-12T06:30:37.534Z,61.63
2017-12-12T06:31:09.262Z,61.49
2017-12-12T06:31:40.904Z,61.52
2017-12-12T06:32:12.589Z,61.52
2017-12-12T06:32:44.205Z,61.49
2017-12-12T06:33:15.835Z,61.55
2017-12-12T06:33:47.503Z,61.59
2017-12-12T06:34:19.126Z,61.62
2017-12-12T06:34:51.064Z,61.56
2017-12-12T06:35:22.738Z,61.50
2017-12-12T06:35:54.363Z,61.91
2017-12-12T06:36:25.998Z,61.64
2017-12-12T06:36:57.909Z,61.51
2017-12-12T06:37:29.538Z,61.54
2017-12-12T06:38:01.171Z,61.58
2017-12-12T06:38:32.802Z,61.59
2017-12-12T06:39:04.506Z,61.71
2017-12-12T06:39:36.147Z,61.92
2017-12-12T06:40:07.789Z,61.87
2017-12-12T06:40:39.430Z,61.92
2017-12-12T06:41:11.296Z,62.02
2017-12-12T06:41:42.926Z,62.17
2017-12-12T06:42:14.664Z,62.28
2017-12-12T06:42:46.305Z,62.29
2017-12-12T06:43:17.950Z,62.52
2017-12-12T06:43:49.742Z,62.44
2017-12-12T06:44:21.373Z,62.56
2017-12-12T06:44:53.002Z,62.64
2017-12-12T06:45:24.622Z,62.86
2017-12-12T06:45:56.464Z,62.62
2017-12-12T06:46:28.106Z,62.72
2017-12-12T06:46:59.749Z,62.75
2017-12-12T06:47:31.390Z,62.75
2017-12-12T06:48:03.051Z,62.74